DISAG EDFB-EDNY
Flight info
| Callsign | DISAG |
|---|---|
| Flight time | 0h 59m |
| Altitude | 7000 |
| Route | BIBTA N850 BOMBI DCT LOKTA T122 ARFAS T732 NEGRA |
| Aircraft | BE58/L-SDFGRY/C |
Departure
| Time | 2026-04-23 06:50 |
|---|---|
| Airport | Reichelsheim Airfield (EDFB) |
Arrival
| Time | 2026-04-23 07:49 |
|---|---|
| Airport | Bodensee Airport Friedrichshafen (EDNY) |
| Time | Latitude | Longitude | Altitude | Speed | Heading |
|---|---|---|---|---|---|
| 2026-04-23 06:50 | 50.35986 | 8.88306 | 900 ft | 169 kts | 44° |
| 2026-04-23 06:50 | 50.36272 | 8.89874 | 1576 ft | 156 kts | 104° |
| 2026-04-23 06:50 | 50.35674 | 8.91285 | 1882 ft | 156 kts | 127° |
| 2026-04-23 06:51 | 50.34959 | 8.92595 | 1937 ft | 166 kts | 130° |
| 2026-04-23 06:51 | 50.34201 | 8.93915 | 2182 ft | 158 kts | 131° |
| 2026-04-23 06:51 | 50.33220 | 8.94586 | 2506 ft | 159 kts | 176° |
| 2026-04-23 06:51 | 50.32105 | 8.94421 | 2784 ft | 162 kts | 183° |
| 2026-04-23 06:52 | 50.30952 | 8.94243 | 2796 ft | 170 kts | 182° |
| 2026-04-23 06:52 | 50.29750 | 8.94056 | 2803 ft | 178 kts | 182° |
| 2026-04-23 06:52 | 50.28502 | 8.93854 | 2800 ft | 180 kts | 182° |
| 2026-04-23 06:52 | 50.27277 | 8.93648 | 2797 ft | 178 kts | 183° |
| 2026-04-23 06:53 | 50.26041 | 8.93435 | 2798 ft | 176 kts | 182° |
| 2026-04-23 06:53 | 50.24841 | 8.93227 | 2798 ft | 175 kts | 182° |
| 2026-04-23 06:53 | 50.23630 | 8.93009 | 2808 ft | 176 kts | 183° |
| 2026-04-23 06:53 | 50.22405 | 8.92781 | 2805 ft | 178 kts | 182° |
| 2026-04-23 06:54 | 50.21166 | 8.92561 | 2805 ft | 180 kts | 183° |
| 2026-04-23 06:54 | 50.19927 | 8.92358 | 2800 ft | 178 kts | 182° |
| 2026-04-23 06:54 | 50.18699 | 8.92154 | 2797 ft | 176 kts | 178° |
| 2026-04-23 06:54 | 50.17497 | 8.92398 | 2796 ft | 174 kts | 164° |
| 2026-04-23 06:55 | 50.16327 | 8.92812 | 2788 ft | 168 kts | 163° |
| 2026-04-23 06:55 | 50.15209 | 8.93198 | 2792 ft | 161 kts | 164° |
| 2026-04-23 06:55 | 50.14105 | 8.93572 | 2794 ft | 164 kts | 164° |
| 2026-04-23 06:55 | 50.13000 | 8.93931 | 2816 ft | 159 kts | 163° |
| 2026-04-23 06:56 | 50.11931 | 8.94284 | 2960 ft | 155 kts | 164° |
| 2026-04-23 06:56 | 50.10884 | 8.94628 | 3105 ft | 152 kts | 163° |
| 2026-04-23 06:56 | 50.09866 | 8.94966 | 3255 ft | 148 kts | 164° |
| 2026-04-23 06:56 | 50.08876 | 8.95289 | 3391 ft | 148 kts | 164° |
| 2026-04-23 06:57 | 50.07837 | 8.95634 | 3399 ft | 157 kts | 164° |
| 2026-04-23 06:57 | 50.06760 | 8.95986 | 3409 ft | 159 kts | 163° |
| 2026-04-23 06:57 | 50.05679 | 8.96353 | 3410 ft | 160 kts | 163° |
| 2026-04-23 06:57 | 50.04580 | 8.96717 | 3396 ft | 162 kts | 164° |
| 2026-04-23 06:58 | 50.03483 | 8.97077 | 3402 ft | 161 kts | 163° |
| 2026-04-23 06:58 | 50.02395 | 8.97443 | 3397 ft | 158 kts | 163° |
| 2026-04-23 06:58 | 50.01323 | 8.97794 | 3409 ft | 158 kts | 163° |
| 2026-04-23 06:58 | 50.00196 | 8.97963 | 3397 ft | 166 kts | 175° |
| 2026-04-23 06:59 | 49.99056 | 8.98005 | 3390 ft | 161 kts | 172° |
| 2026-04-23 06:59 | 49.97945 | 8.98121 | 3390 ft | 159 kts | 171° |
| 2026-04-23 06:59 | 49.96840 | 8.98246 | 3390 ft | 160 kts | 171° |
| 2026-04-23 06:59 | 49.95719 | 8.98372 | 3392 ft | 161 kts | 172° |
| 2026-04-23 07:00 | 49.94593 | 8.98510 | 3592 ft | 169 kts | 171° |
| 2026-04-23 07:00 | 49.93389 | 8.98650 | 3915 ft | 175 kts | 172° |
| 2026-04-23 07:00 | 49.92170 | 8.98786 | 4278 ft | 176 kts | 172° |
| 2026-04-23 07:00 | 49.90941 | 8.98924 | 4653 ft | 179 kts | 172° |
| 2026-04-23 07:01 | 49.89691 | 8.99069 | 5024 ft | 180 kts | 172° |
| 2026-04-23 07:01 | 49.88446 | 8.99213 | 5394 ft | 180 kts | 171° |
| 2026-04-23 07:01 | 49.87209 | 8.99353 | 5739 ft | 180 kts | 171° |
| 2026-04-23 07:01 | 49.85974 | 8.99493 | 6109 ft | 178 kts | 171° |
| 2026-04-23 07:02 | 49.84742 | 8.99637 | 6463 ft | 177 kts | 170° |
| 2026-04-23 07:02 | 49.83518 | 8.99777 | 6825 ft | 176 kts | 169° |
| 2026-04-23 07:02 | 49.82270 | 8.99923 | 6981 ft | 186 kts | 170° |
| 2026-04-23 07:02 | 49.80942 | 9.00075 | 6986 ft | 195 kts | 171° |
| 2026-04-23 07:03 | 49.79570 | 9.00227 | 6991 ft | 200 kts | 171° |
| 2026-04-23 07:03 | 49.78183 | 9.00385 | 7029 ft | 196 kts | 171° |
| 2026-04-23 07:03 | 49.76874 | 9.00530 | 7402 ft | 183 kts | 170° |
| 2026-04-23 07:03 | 49.75638 | 9.00676 | 7765 ft | 179 kts | 170° |
| 2026-04-23 07:04 | 49.74401 | 9.00822 | 8135 ft | 178 kts | 170° |
| 2026-04-23 07:04 | 49.73171 | 9.00962 | 8487 ft | 178 kts | 171° |
| 2026-04-23 07:04 | 49.71930 | 9.01102 | 8794 ft | 179 kts | 170° |
| 2026-04-23 07:04 | 49.70691 | 9.01247 | 9135 ft | 178 kts | 170° |
| 2026-04-23 07:05 | 49.69456 | 9.01388 | 9474 ft | 177 kts | 170° |
| 2026-04-23 07:05 | 49.68233 | 9.01526 | 9813 ft | 177 kts | 170° |
| 2026-04-23 07:05 | 49.67006 | 9.01667 | 10170 ft | 177 kts | 170° |
| 2026-04-23 07:05 | 49.65772 | 9.01808 | 10468 ft | 178 kts | 171° |
| 2026-04-23 07:06 | 49.64528 | 9.01951 | 10720 ft | 180 kts | 171° |
| 2026-04-23 07:06 | 49.63277 | 9.02092 | 10973 ft | 180 kts | 171° |
| 2026-04-23 07:06 | 49.62020 | 9.02234 | 10909 ft | 183 kts | 173° |
| 2026-04-23 07:06 | 49.60728 | 9.02380 | 11081 ft | 188 kts | 174° |
| 2026-04-23 07:07 | 49.59441 | 9.02527 | 11281 ft | 188 kts | 174° |
| 2026-04-23 07:07 | 49.58104 | 9.02678 | 11303 ft | 197 kts | 174° |
| 2026-04-23 07:07 | 49.56718 | 9.02833 | 11310 ft | 201 kts | 174° |
| 2026-04-23 07:07 | 49.55312 | 9.02991 | 11318 ft | 203 kts | 174° |
| 2026-04-23 07:08 | 49.53897 | 9.03153 | 11315 ft | 204 kts | 174° |
| 2026-04-23 07:08 | 49.52478 | 9.03312 | 11313 ft | 205 kts | 174° |
| 2026-04-23 07:08 | 49.51061 | 9.03472 | 11314 ft | 204 kts | 174° |
| 2026-04-23 07:08 | 49.49632 | 9.03633 | 11314 ft | 205 kts | 174° |
| 2026-04-23 07:09 | 49.48209 | 9.03795 | 11316 ft | 205 kts | 174° |
| 2026-04-23 07:09 | 49.46785 | 9.03956 | 11317 ft | 205 kts | 174° |
| 2026-04-23 07:09 | 49.45357 | 9.04117 | 11310 ft | 206 kts | 174° |
| 2026-04-23 07:09 | 49.43929 | 9.04278 | 11309 ft | 206 kts | 174° |
| 2026-04-23 07:10 | 49.42498 | 9.04439 | 11307 ft | 206 kts | 174° |
| 2026-04-23 07:10 | 49.41074 | 9.04601 | 11307 ft | 205 kts | 174° |
| 2026-04-23 07:10 | 49.39650 | 9.04760 | 11307 ft | 205 kts | 174° |
| 2026-04-23 07:10 | 49.38226 | 9.04920 | 11302 ft | 205 kts | 174° |
| 2026-04-23 07:11 | 49.36801 | 9.05082 | 11302 ft | 205 kts | 174° |
| 2026-04-23 07:11 | 49.35394 | 9.05239 | 11304 ft | 206 kts | 174° |
| 2026-04-23 07:11 | 49.33967 | 9.05399 | 11304 ft | 205 kts | 174° |
| 2026-04-23 07:12 | 49.31112 | 9.05719 | 11301 ft | 205 kts | 174° |
| 2026-04-23 07:12 | 49.29685 | 9.05880 | 11300 ft | 205 kts | 174° |
| 2026-04-23 07:12 | 49.28257 | 9.06040 | 11300 ft | 206 kts | 174° |
| 2026-04-23 07:12 | 49.26833 | 9.06200 | 11300 ft | 205 kts | 174° |
| 2026-04-23 07:13 | 49.25409 | 9.06359 | 11298 ft | 205 kts | 174° |
| 2026-04-23 07:13 | 49.23984 | 9.06518 | 11300 ft | 205 kts | 174° |
| 2026-04-23 07:13 | 49.22575 | 9.06676 | 11301 ft | 205 kts | 174° |
| 2026-04-23 07:13 | 49.21611 | 9.06786 | 11301 ft | 206 kts | 174° |
| 2026-04-23 07:14 | 49.19719 | 9.06997 | 11297 ft | 206 kts | 174° |
| 2026-04-23 07:14 | 49.18291 | 9.07154 | 11298 ft | 205 kts | 174° |
| 2026-04-23 07:14 | 49.16870 | 9.07312 | 11301 ft | 205 kts | 174° |
| 2026-04-23 07:14 | 49.15445 | 9.07470 | 11300 ft | 205 kts | 174° |
| 2026-04-23 07:15 | 49.14021 | 9.07632 | 11298 ft | 205 kts | 174° |
| 2026-04-23 07:15 | 49.12594 | 9.07790 | 11300 ft | 206 kts | 174° |
| 2026-04-23 07:15 | 49.11631 | 9.07897 | 11299 ft | 205 kts | 174° |
| 2026-04-23 07:15 | 49.10224 | 9.08055 | 11296 ft | 205 kts | 174° |
| 2026-04-23 07:16 | 49.08801 | 9.08211 | 11299 ft | 205 kts | 174° |
| 2026-04-23 07:16 | 49.07380 | 9.08371 | 11301 ft | 205 kts | 174° |
| 2026-04-23 07:16 | 49.05951 | 9.08529 | 11296 ft | 206 kts | 174° |
| 2026-04-23 07:16 | 49.04526 | 9.08685 | 11295 ft | 205 kts | 174° |
| 2026-04-23 07:17 | 49.03104 | 9.08845 | 11297 ft | 205 kts | 174° |
| 2026-04-23 07:17 | 49.01683 | 9.09003 | 11305 ft | 205 kts | 174° |
| 2026-04-23 07:17 | 49.00259 | 9.09159 | 11308 ft | 205 kts | 174° |
| 2026-04-23 07:17 | 48.98840 | 9.09317 | 11310 ft | 204 kts | 174° |
| 2026-04-23 07:18 | 48.97422 | 9.09476 | 11314 ft | 204 kts | 173° |
| 2026-04-23 07:18 | 48.96010 | 9.09632 | 11319 ft | 204 kts | 174° |
| 2026-04-23 07:18 | 48.94594 | 9.09787 | 11321 ft | 204 kts | 174° |
| 2026-04-23 07:18 | 48.93178 | 9.09946 | 11324 ft | 204 kts | 173° |
| 2026-04-23 07:19 | 48.91763 | 9.10106 | 11328 ft | 204 kts | 174° |
| 2026-04-23 07:19 | 48.90348 | 9.10259 | 11330 ft | 204 kts | 174° |
| 2026-04-23 07:19 | 48.88928 | 9.10413 | 11335 ft | 204 kts | 174° |
| 2026-04-23 07:19 | 48.87514 | 9.10568 | 11339 ft | 204 kts | 173° |
| 2026-04-23 07:20 | 48.86097 | 9.10725 | 11341 ft | 204 kts | 174° |
| 2026-04-23 07:20 | 48.84695 | 9.10880 | 11348 ft | 204 kts | 174° |
| 2026-04-23 07:20 | 48.83279 | 9.11036 | 11350 ft | 204 kts | 174° |
| 2026-04-23 07:20 | 48.81862 | 9.11189 | 11356 ft | 204 kts | 174° |
| 2026-04-23 07:21 | 48.80441 | 9.11349 | 11362 ft | 205 kts | 174° |
| 2026-04-23 07:21 | 48.79023 | 9.11504 | 11363 ft | 204 kts | 174° |
| 2026-04-23 07:21 | 48.77604 | 9.11659 | 11368 ft | 204 kts | 174° |
| 2026-04-23 07:21 | 48.76187 | 9.11815 | 11372 ft | 204 kts | 174° |
| 2026-04-23 07:22 | 48.74770 | 9.11971 | 11374 ft | 204 kts | 173° |
| 2026-04-23 07:22 | 48.73352 | 9.12129 | 11373 ft | 204 kts | 174° |
| 2026-04-23 07:22 | 48.71935 | 9.12280 | 11373 ft | 205 kts | 174° |
| 2026-04-23 07:22 | 48.70514 | 9.12437 | 11373 ft | 204 kts | 173° |
| 2026-04-23 07:23 | 48.69108 | 9.12590 | 11378 ft | 205 kts | 174° |
| 2026-04-23 07:23 | 48.67683 | 9.12746 | 11375 ft | 205 kts | 174° |
| 2026-04-23 07:23 | 48.66260 | 9.12902 | 11377 ft | 205 kts | 174° |
| 2026-04-23 07:23 | 48.64836 | 9.13057 | 11376 ft | 205 kts | 173° |
| 2026-04-23 07:24 | 48.63410 | 9.13214 | 11375 ft | 205 kts | 173° |
| 2026-04-23 07:24 | 48.61985 | 9.13372 | 11375 ft | 205 kts | 173° |
| 2026-04-23 07:24 | 48.60560 | 9.13523 | 11374 ft | 205 kts | 174° |
| 2026-04-23 07:24 | 48.59143 | 9.13679 | 11372 ft | 204 kts | 173° |
| 2026-04-23 07:25 | 48.57730 | 9.13833 | 11368 ft | 204 kts | 173° |
| 2026-04-23 07:25 | 48.56315 | 9.13988 | 11367 ft | 204 kts | 173° |
| 2026-04-23 07:25 | 48.54898 | 9.14143 | 11371 ft | 205 kts | 173° |
| 2026-04-23 07:25 | 48.53473 | 9.14296 | 11365 ft | 205 kts | 173° |
| 2026-04-23 07:26 | 48.52052 | 9.14449 | 11362 ft | 204 kts | 173° |
| 2026-04-23 07:26 | 48.50652 | 9.14603 | 11363 ft | 205 kts | 173° |
| 2026-04-23 07:26 | 48.49230 | 9.14759 | 11365 ft | 205 kts | 173° |
| 2026-04-23 07:26 | 48.47802 | 9.14911 | 11358 ft | 206 kts | 173° |
| 2026-04-23 07:27 | 48.46372 | 9.15069 | 11358 ft | 206 kts | 173° |
| 2026-04-23 07:27 | 48.44945 | 9.15222 | 11357 ft | 206 kts | 173° |
| 2026-04-23 07:27 | 48.43522 | 9.15376 | 11351 ft | 205 kts | 173° |
| 2026-04-23 07:27 | 48.42102 | 9.15533 | 11354 ft | 205 kts | 173° |
| 2026-04-23 07:28 | 48.40685 | 9.15684 | 11351 ft | 204 kts | 173° |
| 2026-04-23 07:28 | 48.39264 | 9.15837 | 11350 ft | 204 kts | 173° |
| 2026-04-23 07:28 | 48.37840 | 9.15990 | 11349 ft | 205 kts | 173° |
| 2026-04-23 07:28 | 48.36418 | 9.16146 | 11349 ft | 205 kts | 173° |
| 2026-04-23 07:29 | 48.34991 | 9.16298 | 11343 ft | 205 kts | 173° |
| 2026-04-23 07:29 | 48.33571 | 9.16454 | 11346 ft | 205 kts | 173° |
| 2026-04-23 07:29 | 48.32164 | 9.16604 | 11343 ft | 205 kts | 173° |
| 2026-04-23 07:29 | 48.30719 | 9.16761 | 11345 ft | 206 kts | 173° |
| 2026-04-23 07:30 | 48.29312 | 9.16905 | 11342 ft | 205 kts | 174° |
| 2026-04-23 07:30 | 48.27891 | 9.17063 | 11342 ft | 204 kts | 173° |
| 2026-04-23 07:30 | 48.26474 | 9.17224 | 11340 ft | 204 kts | 173° |
| 2026-04-23 07:30 | 48.25052 | 9.17375 | 11341 ft | 205 kts | 173° |
| 2026-04-23 07:31 | 48.23634 | 9.17522 | 11339 ft | 204 kts | 173° |
| 2026-04-23 07:31 | 48.22217 | 9.17675 | 11343 ft | 204 kts | 173° |
| 2026-04-23 07:31 | 48.20796 | 9.17827 | 11340 ft | 204 kts | 173° |
| 2026-04-23 07:31 | 48.19382 | 9.17979 | 11338 ft | 204 kts | 173° |
| 2026-04-23 07:32 | 48.17966 | 9.18132 | 11339 ft | 203 kts | 173° |
| 2026-04-23 07:32 | 48.16555 | 9.18290 | 11339 ft | 203 kts | 171° |
| 2026-04-23 07:32 | 48.15152 | 9.18548 | 11339 ft | 203 kts | 171° |
| 2026-04-23 07:32 | 48.13745 | 9.18776 | 11343 ft | 204 kts | 171° |
| 2026-04-23 07:33 | 48.12331 | 9.19009 | 11339 ft | 204 kts | 171° |
| 2026-04-23 07:33 | 48.10919 | 9.19250 | 11340 ft | 204 kts | 171° |
| 2026-04-23 07:33 | 48.09529 | 9.19486 | 11337 ft | 203 kts | 171° |
| 2026-04-23 07:33 | 48.08121 | 9.19726 | 11339 ft | 204 kts | 171° |
| 2026-04-23 07:34 | 48.06710 | 9.19963 | 11341 ft | 204 kts | 170° |
| 2026-04-23 07:34 | 48.05294 | 9.20206 | 11339 ft | 205 kts | 171° |
| 2026-04-23 07:34 | 48.03877 | 9.20446 | 11340 ft | 204 kts | 171° |
| 2026-04-23 07:34 | 48.02466 | 9.20685 | 11339 ft | 204 kts | 170° |
| 2026-04-23 07:35 | 48.01058 | 9.20925 | 11343 ft | 204 kts | 171° |
| 2026-04-23 07:35 | 47.99649 | 9.21162 | 11340 ft | 204 kts | 170° |
| 2026-04-23 07:35 | 47.98241 | 9.21401 | 11341 ft | 203 kts | 170° |
| 2026-04-23 07:35 | 47.96833 | 9.21640 | 11338 ft | 203 kts | 170° |
| 2026-04-23 07:36 | 47.95443 | 9.21875 | 11349 ft | 204 kts | 170° |
| 2026-04-23 07:36 | 47.94026 | 9.22116 | 11345 ft | 205 kts | 170° |
| 2026-04-23 07:36 | 47.92612 | 9.22355 | 11343 ft | 204 kts | 170° |
| 2026-04-23 07:36 | 47.91199 | 9.22592 | 11347 ft | 204 kts | 170° |
| 2026-04-23 07:37 | 47.89785 | 9.22831 | 11350 ft | 205 kts | 170° |
| 2026-04-23 07:37 | 47.88365 | 9.23073 | 11348 ft | 205 kts | 170° |
| 2026-04-23 07:37 | 47.86943 | 9.23312 | 11348 ft | 205 kts | 170° |
| 2026-04-23 07:37 | 47.85524 | 9.23547 | 11242 ft | 203 kts | 172° |
| 2026-04-23 07:38 | 47.84140 | 9.23404 | 10965 ft | 197 kts | 192° |
| 2026-04-23 07:38 | 47.82831 | 9.22911 | 10667 ft | 193 kts | 191° |
| 2026-04-23 07:38 | 47.81521 | 9.22461 | 10375 ft | 193 kts | 190° |
| 2026-04-23 07:38 | 47.80237 | 9.22006 | 10075 ft | 192 kts | 191° |
| 2026-04-23 07:39 | 47.78936 | 9.21544 | 9755 ft | 192 kts | 191° |
| 2026-04-23 07:39 | 47.77641 | 9.21081 | 9441 ft | 191 kts | 190° |
| 2026-04-23 07:39 | 47.76342 | 9.20620 | 9128 ft | 192 kts | 190° |
| 2026-04-23 07:39 | 47.75043 | 9.20157 | 8820 ft | 192 kts | 191° |
| 2026-04-23 07:40 | 47.73744 | 9.19695 | 8512 ft | 191 kts | 190° |
| 2026-04-23 07:40 | 47.72451 | 9.19238 | 8209 ft | 191 kts | 190° |
| 2026-04-23 07:40 | 47.71161 | 9.18781 | 7906 ft | 191 kts | 190° |
| 2026-04-23 07:40 | 47.69872 | 9.18323 | 7613 ft | 191 kts | 190° |
| 2026-04-23 07:41 | 47.68575 | 9.17863 | 7318 ft | 192 kts | 190° |
| 2026-04-23 07:41 | 47.67281 | 9.17403 | 7025 ft | 191 kts | 190° |
| 2026-04-23 07:41 | 47.65990 | 9.16947 | 6735 ft | 190 kts | 189° |
| 2026-04-23 07:41 | 47.64692 | 9.16609 | 6425 ft | 188 kts | 176° |
| 2026-04-23 07:42 | 47.63429 | 9.16945 | 6108 ft | 183 kts | 155° |
| 2026-04-23 07:42 | 47.62323 | 9.17814 | 5800 ft | 179 kts | 145° |
| 2026-04-23 07:42 | 47.61266 | 9.18727 | 5501 ft | 178 kts | 147° |
| 2026-04-23 07:42 | 47.60201 | 9.19640 | 5343 ft | 172 kts | 146° |
| 2026-04-23 07:43 | 47.59187 | 9.20506 | 5340 ft | 165 kts | 146° |
| 2026-04-23 07:43 | 47.58254 | 9.21438 | 5338 ft | 160 kts | 133° |
| 2026-04-23 07:43 | 47.57627 | 9.22714 | 5334 ft | 147 kts | 113° |
| 2026-04-23 07:43 | 47.57338 | 9.24108 | 5307 ft | 139 kts | 96° |
| 2026-04-23 07:44 | 47.57368 | 9.25537 | 5231 ft | 139 kts | 77° |
| 2026-04-23 07:44 | 47.57771 | 9.26854 | 5077 ft | 145 kts | 65° |
| 2026-04-23 07:44 | 47.58249 | 9.28222 | 4866 ft | 151 kts | 63° |
| 2026-04-23 07:44 | 47.58750 | 9.29582 | 4654 ft | 150 kts | 63° |
| 2026-04-23 07:45 | 47.59283 | 9.30934 | 4445 ft | 153 kts | 60° |
| 2026-04-23 07:45 | 47.59810 | 9.32291 | 4216 ft | 151 kts | 62° |
| 2026-04-23 07:45 | 47.60320 | 9.33612 | 4016 ft | 145 kts | 62° |
| 2026-04-23 07:45 | 47.60821 | 9.34886 | 3819 ft | 142 kts | 62° |
| 2026-04-23 07:46 | 47.61312 | 9.36156 | 3621 ft | 142 kts | 62° |
| 2026-04-23 07:46 | 47.61801 | 9.37425 | 3422 ft | 142 kts | 62° |
| 2026-04-23 07:46 | 47.62293 | 9.38677 | 3222 ft | 143 kts | 62° |
| 2026-04-23 07:46 | 47.62793 | 9.39975 | 3016 ft | 143 kts | 61° |
| 2026-04-23 07:47 | 47.63285 | 9.41240 | 2816 ft | 144 kts | 60° |
| 2026-04-23 07:47 | 47.63781 | 9.42519 | 2599 ft | 140 kts | 61° |
| 2026-04-23 07:47 | 47.64241 | 9.43710 | 2393 ft | 125 kts | 60° |
| 2026-04-23 07:47 | 47.64650 | 9.44753 | 2220 ft | 111 kts | 60° |
| 2026-04-23 07:48 | 47.65031 | 9.45725 | 2059 ft | 108 kts | 60° |
| 2026-04-23 07:48 | 47.65398 | 9.46685 | 1911 ft | 106 kts | 61° |
| 2026-04-23 07:48 | 47.65737 | 9.47564 | 1775 ft | 88 kts | 60° |
| 2026-04-23 07:48 | 47.66033 | 9.48304 | 1663 ft | 81 kts | 60° |
| 2026-04-23 07:49 | 47.66317 | 9.49024 | 1577 ft | 81 kts | 61° |
| 2026-04-23 07:49 | 47.66593 | 9.49757 | 1462 ft | 81 kts | 60° |
| 2026-04-23 07:49 | 47.66847 | 9.50417 | 1373 ft | 60 kts | 61° |
| 2026-04-23 07:49 | 47.66977 | 9.50761 | 1371 ft | 26 kts | 60° |
| 2026-04-23 07:50 | 47.67060 | 9.50968 | 1371 ft | 22 kts | 57° |
| 2026-04-23 07:50 | 47.67125 | 9.51141 | 1373 ft | 15 kts | 62° |
| 2026-04-23 07:50 | 47.67108 | 9.51262 | 1371 ft | 14 kts | 144° |
| 2026-04-23 07:50 | 47.67054 | 9.51325 | 1370 ft | 0 kts | 143° |
| 2026-04-23 07:51 | 47.67022 | 9.51370 | 1368 ft | 8 kts | 150° |
| 2026-04-23 07:51 | 47.66962 | 9.51411 | 1355 ft | 0 kts | 156° |
| 2026-04-23 07:51 | 47.66958 | 9.51364 | 1355 ft | 8 kts | 310° |
| 2026-04-23 07:52 | 47.66979 | 9.51361 | 1355 ft | 0 kts | 108° |